createdAt,value
2023-03-18T00:00:00.802Z,2.70
2023-03-18T00:05:00.388Z,2.10
2023-03-18T00:09:59.672Z,2.10
2023-03-18T00:14:59.803Z,2.50
2023-03-18T00:20:05.984Z,2.60
2023-03-18T00:25:08.528Z,2.40
2023-03-18T00:30:10.524Z,2.40
2023-03-18T00:35:12.345Z,2.10
2023-03-18T00:40:20.499Z,2.10
2023-03-18T00:45:21.983Z,1.90
2023-03-18T00:50:22.343Z,2.20
2023-03-18T00:55:22.320Z,1.80
2023-03-18T01:00:23.516Z,2.20
2023-03-18T01:05:24.804Z,1.80
2023-03-18T01:10:24.549Z,2.00
2023-03-18T01:15:26.129Z,2.20
2023-03-18T01:20:27.814Z,1.90
2023-03-18T01:25:27.564Z,1.90
2023-03-18T01:30:28.598Z,1.70
2023-03-18T01:35:29.125Z,1.80
2023-03-18T01:40:30.066Z,1.80
2023-03-18T01:45:33.925Z,1.70
2023-03-18T01:50:38.871Z,1.50
2023-03-18T01:55:40.139Z,2.10
2023-03-18T02:00:44.865Z,1.80
2023-03-18T02:05:45.614Z,1.80
2023-03-18T02:10:46.222Z,1.80
2023-03-18T02:15:53.689Z,1.60
2023-03-18T02:21:15.953Z,1.30
2023-03-18T02:26:23.182Z,1.60
2023-03-18T02:31:23.631Z,1.80
2023-03-18T02:36:29.868Z,0.70
2023-03-18T02:41:34.751Z,1.40
2023-03-18T02:46:49.035Z,1.20
2023-03-18T02:51:49.381Z,1.30
2023-03-18T02:56:49.388Z,1.40
2023-03-18T03:01:51.838Z,1.20
2023-03-18T03:06:53.003Z,1.40
2023-03-18T03:12:00.538Z,1.20
2023-03-18T03:16:59.350Z,1.30
2023-03-18T03:21:58.934Z,1.30
2023-03-18T03:26:58.258Z,1.20
2023-03-18T03:31:57.892Z,1.20
2023-03-18T03:36:59.024Z,1.10
2023-03-18T03:41:58.533Z,1.20
2023-03-18T03:46:57.235Z,1.50
2023-03-18T03:51:56.934Z,1.10
2023-03-18T03:56:57.061Z,1.20
2023-03-18T04:01:57.357Z,1.20
2023-03-18T04:06:56.317Z,1.00
2023-03-18T04:11:56.100Z,0.80
2023-03-18T04:16:58.277Z,1.30
2023-03-18T04:21:58.057Z,1.10
2023-03-18T04:26:57.717Z,0.90
2023-03-18T04:31:56.748Z,0.90
2023-03-18T04:36:58.225Z,0.60
2023-03-18T04:41:58.522Z,0.90
2023-03-18T04:46:59.916Z,1.00
2023-03-18T04:51:58.857Z,0.70
2023-03-18T04:57:03.207Z,0.90
2023-03-18T05:02:04.858Z,1.10
2023-03-18T05:07:05.440Z,0.80
2023-03-18T05:12:08.570Z,0.90
2023-03-18T05:17:08.919Z,1.00
2023-03-18T05:22:10.252Z,0.80
2023-03-18T05:27:09.476Z,0.90
2023-03-18T05:32:14.780Z,1.40
2023-03-18T05:37:17.283Z,0.70
2023-03-18T05:42:20.957Z,0.80
2023-03-18T05:47:19.999Z,0.90
2023-03-18T05:52:40.174Z,1.30
2023-03-18T05:57:43.988Z,0.90
2023-03-18T06:02:43.846Z,1.00
2023-03-18T06:07:43.945Z,0.90
2023-03-18T06:12:44.736Z,1.00
2023-03-18T06:17:44.696Z,1.10
2023-03-18T06:22:49.016Z,0.90
2023-03-18T06:27:48.202Z,0.90
2023-03-18T06:32:49.801Z,1.20
2023-03-18T06:37:49.148Z,1.00
2023-03-18T06:42:49.320Z,1.20
2023-03-18T06:47:57.947Z,0.90
2023-03-18T06:52:58.013Z,0.90
2023-03-18T06:58:01.741Z,0.50
2023-03-18T07:03:08.503Z,1.10
2023-03-18T07:08:10.628Z,1.50
2023-03-18T07:13:11.000Z,1.20
2023-03-18T07:18:12.285Z,1.00
2023-03-18T07:23:12.558Z,1.20
2023-03-18T07:28:11.635Z,0.60
2023-03-18T07:33:12.183Z,0.80
2023-03-18T07:38:12.650Z,0.80
2023-03-18T07:43:11.666Z,0.60
2023-03-18T07:48:10.954Z,0.90
2023-03-18T07:53:10.846Z,1.20
2023-03-18T07:58:10.797Z,1.30
2023-03-18T08:03:09.643Z,1.10
2023-03-18T08:08:10.068Z,0.90
2023-03-18T08:13:09.205Z,1.40
2023-03-18T08:18:09.848Z,0.80
2023-03-18T08:23:09.404Z,0.90
2023-03-18T08:28:09.326Z,1.10
2023-03-18T08:33:09.914Z,0.50
2023-03-18T08:38:09.426Z,1.10
2023-03-18T08:43:09.467Z,1.10
2023-03-18T08:48:09.803Z,1.50
2023-03-18T08:53:09.510Z,1.40
2023-03-18T08:58:10.355Z,1.10
2023-03-18T09:03:10.950Z,0.90
2023-03-18T09:08:10.998Z,0.70
2023-03-18T09:13:12.609Z,1.20
2023-03-18T09:18:13.760Z,0.50
2023-03-18T09:23:14.922Z,1.20
2023-03-18T09:28:15.681Z,0.90
2023-03-18T09:33:16.377Z,0.60
2023-03-18T09:38:20.586Z,1.20
2023-03-18T09:43:45.001Z,1.00
2023-03-18T09:49:11.775Z,1.00
2023-03-18T09:54:19.515Z,1.00
2023-03-18T09:59:30.871Z,1.20
2023-03-18T10:04:40.053Z,0.90
2023-03-18T10:09:44.826Z,1.20
2023-03-18T10:14:51.554Z,1.40
2023-03-18T10:19:55.547Z,1.20
2023-03-18T10:25:08.951Z,1.00
2023-03-18T10:30:31.072Z,1.00
2023-03-18T10:35:39.894Z,1.00
2023-03-18T10:40:44.643Z,1.30
2023-03-18T10:45:44.826Z,1.10
2023-03-18T10:50:52.271Z,1.00
2023-03-18T10:56:06.784Z,1.50
2023-03-18T11:01:08.006Z,1.30
2023-03-18T11:06:17.420Z,1.50
2023-03-18T11:11:33.030Z,1.40
2023-03-18T11:16:42.850Z,1.00
2023-03-18T11:21:42.894Z,1.10
2023-03-18T11:26:57.953Z,1.30
2023-03-18T11:31:59.843Z,1.60
2023-03-18T11:37:04.834Z,1.50
2023-03-18T11:42:17.531Z,1.60
2023-03-18T11:47:25.149Z,1.60
2023-03-18T11:52:44.297Z,1.40
2023-03-18T11:58:20.327Z,0.80
2023-03-18T12:03:58.989Z,1.00
2023-03-18T12:09:16.480Z,1.70
2023-03-18T12:14:29.272Z,1.70
2023-03-18T12:20:07.008Z,1.30
2023-03-18T12:25:31.721Z,1.40
2023-03-18T12:31:02.621Z,1.80
2023-03-18T12:36:15.654Z,1.40
2023-03-18T12:41:27.870Z,1.70
2023-03-18T12:46:34.465Z,1.10
2023-03-18T12:51:42.846Z,1.40
2023-03-18T12:56:53.187Z,1.10
2023-03-18T13:02:13.449Z,1.40
2023-03-18T13:07:25.420Z,1.50
2023-03-18T13:12:30.653Z,1.90
2023-03-18T13:17:36.404Z,1.60
2023-03-18T13:23:16.961Z,1.60
2023-03-18T13:28:46.606Z,1.20
2023-03-18T13:34:26.686Z,1.50
2023-03-18T13:39:44.545Z,1.40
2023-03-18T13:44:49.806Z,1.60
2023-03-18T13:49:50.132Z,1.80
2023-03-18T13:54:50.277Z,2.00
2023-03-18T14:00:14.748Z,1.70
2023-03-18T14:05:45.367Z,2.30
2023-03-18T14:10:45.117Z,1.90
2023-03-18T14:15:47.707Z,1.80
2023-03-18T14:20:47.954Z,1.90
2023-03-18T14:25:54.807Z,1.90
2023-03-18T14:31:21.381Z,1.70
2023-03-18T14:36:28.573Z,2.00
2023-03-18T14:41:32.873Z,2.30
2023-03-18T14:46:38.128Z,2.00
2023-03-18T14:51:37.476Z,1.90
2023-03-18T14:56:53.683Z,2.30
2023-03-18T15:01:54.190Z,1.70
2023-03-18T15:06:58.138Z,2.20
2023-03-18T15:11:57.844Z,2.10
2023-03-18T15:17:00.541Z,2.10
2023-03-18T15:22:04.756Z,2.10
2023-03-18T15:27:14.612Z,2.80
2023-03-18T15:32:26.689Z,2.30
2023-03-18T15:37:40.935Z,2.40
2023-03-18T15:42:40.892Z,2.70
2023-03-18T15:47:44.448Z,2.30
2023-03-18T15:52:48.428Z,2.70
2023-03-18T15:57:47.796Z,3.00
2023-03-18T16:02:46.664Z,3.20
2023-03-18T16:07:46.913Z,3.00
2023-03-18T16:12:47.129Z,2.60
2023-03-18T16:17:48.869Z,2.50
2023-03-18T16:22:48.056Z,3.40
2023-03-18T16:27:49.492Z,3.60
2023-03-18T16:32:49.391Z,3.20
2023-03-18T16:37:50.532Z,3.40
2023-03-18T16:42:50.352Z,3.80
2023-03-18T16:47:53.016Z,3.60
2023-03-18T16:52:53.710Z,3.90
2023-03-18T16:57:58.292Z,4.10
2023-03-18T17:02:57.832Z,4.30
2023-03-18T17:07:57.409Z,5.60
2023-03-18T17:13:05.933Z,5.20
2023-03-18T17:18:05.457Z,5.50
2023-03-18T17:23:05.656Z,4.90
2023-03-18T17:28:08.246Z,6.50
2023-03-18T17:33:25.697Z,6.50
2023-03-18T17:38:26.068Z,6.90
2023-03-18T17:43:32.219Z,7.00
2023-03-18T17:48:35.524Z,8.30
2023-03-18T17:53:41.916Z,7.90
2023-03-18T17:58:44.499Z,8.40
2023-03-18T18:03:44.830Z,8.70
2023-03-18T18:08:44.538Z,9.30
2023-03-18T18:13:43.446Z,10.20
2023-03-18T18:18:42.957Z,10.10
2023-03-18T18:23:45.242Z,10.00
2023-03-18T18:28:48.291Z,8.70
2023-03-18T18:33:50.567Z,8.30
2023-03-18T18:38:51.060Z,8.20
2023-03-18T18:43:50.443Z,7.30
2023-03-18T18:48:54.194Z,6.50
2023-03-18T18:53:55.270Z,6.50
2023-03-18T18:58:56.848Z,5.30
2023-03-18T19:03:56.834Z,5.80
2023-03-18T19:08:58.969Z,5.20
2023-03-18T19:14:18.347Z,4.90
2023-03-18T19:19:21.334Z,5.80
2023-03-18T19:24:31.366Z,4.80
2023-03-18T19:29:32.862Z,6.10
2023-03-18T19:34:35.429Z,6.10
2023-03-18T19:39:36.180Z,5.70
2023-03-18T19:44:35.555Z,5.60
2023-03-18T19:49:39.556Z,5.40
2023-03-18T19:54:40.072Z,5.90
2023-03-18T19:59:40.050Z,6.20
2023-03-18T20:04:39.329Z,5.60
2023-03-18T20:09:39.642Z,5.70
2023-03-18T20:14:39.499Z,5.70
2023-03-18T20:19:39.345Z,5.80
2023-03-18T20:24:39.107Z,6.30
2023-03-18T20:29:38.651Z,4.90
2023-03-18T20:34:39.510Z,5.70
2023-03-18T20:39:38.708Z,6.20
2023-03-18T20:44:38.358Z,6.00
2023-03-18T20:49:41.051Z,5.60
2023-03-18T20:54:39.923Z,5.80
2023-03-18T20:59:39.139Z,5.10
2023-03-18T21:04:38.567Z,5.30
2023-03-18T21:09:39.741Z,5.60
2023-03-18T21:14:39.322Z,5.90
2023-03-18T21:19:39.065Z,5.30
2023-03-18T21:24:39.267Z,4.50
2023-03-18T21:29:39.300Z,4.90
2023-03-18T21:34:38.425Z,4.10
2023-03-18T21:39:37.646Z,5.30
2023-03-18T21:44:37.190Z,4.50
2023-03-18T21:49:36.258Z,5.80
2023-03-18T21:54:35.608Z,5.50
2023-03-18T21:59:35.661Z,6.00
2023-03-18T22:04:36.606Z,5.80
2023-03-18T22:09:37.212Z,6.10
2023-03-18T22:14:36.287Z,5.00
2023-03-18T22:19:35.694Z,4.80
2023-03-18T22:24:36.084Z,5.00
2023-03-18T22:29:35.305Z,5.00
2023-03-18T22:34:35.350Z,4.90
2023-03-18T22:39:34.851Z,5.20
2023-03-18T22:44:34.475Z,5.30
2023-03-18T22:49:33.637Z,5.10
2023-03-18T22:54:33.376Z,5.70
2023-03-18T22:59:33.058Z,5.10
2023-03-18T23:04:32.217Z,5.70
2023-03-18T23:09:41.577Z,5.50
2023-03-18T23:14:48.901Z,6.60
2023-03-18T23:19:48.818Z,6.30
2023-03-18T23:24:47.541Z,7.00
2023-03-18T23:29:47.331Z,5.10
2023-03-18T23:34:47.952Z,6.50
2023-03-18T23:39:48.094Z,7.40
2023-03-18T23:44:48.960Z,6.00
2023-03-18T23:49:48.135Z,6.70
2023-03-18T23:54:47.630Z,5.80
2023-03-18T23:59:47.173Z,6.20
